sensor_id;sensor_type;location;lat;lon;timestamp;pressure;altitude;pressure_sealevel;temperature;humidity
30021;BME280;16861;52.294;7.760;2023-12-20T00:01:43;99529.59;;;8.77;81.65
30021;BME280;16861;52.294;7.760;2023-12-20T00:04:10;99520.03;;;8.76;81.79
30021;BME280;16861;52.294;7.760;2023-12-20T00:06:36;99524.41;;;8.76;81.84
30021;BME280;16861;52.294;7.760;2023-12-20T00:09:03;99521.88;;;8.74;81.61
30021;BME280;16861;52.294;7.760;2023-12-20T00:11:30;99533.22;;;8.75;81.44
30021;BME280;16861;52.294;7.760;2023-12-20T00:13:56;99521.03;;;8.73;81.57
30021;BME280;16861;52.294;7.760;2023-12-20T00:16:23;99529.75;;;8.74;81.80
30021;BME280;16861;52.294;7.760;2023-12-20T00:18:49;99529.00;;;8.72;82.04
30021;BME280;16861;52.294;7.760;2023-12-20T00:21:16;99529.00;;;8.72;81.97
30021;BME280;16861;52.294;7.760;2023-12-20T00:23:42;99526.38;;;8.72;81.86
30021;BME280;16861;52.294;7.760;2023-12-20T00:26:09;99531.69;;;8.70;81.80
30021;BME280;16861;52.294;7.760;2023-12-20T00:28:36;99540.41;;;8.71;81.92
30021;BME280;16861;52.294;7.760;2023-12-20T00:31:02;99537.78;;;8.71;82.18
30021;BME280;16861;52.294;7.760;2023-12-20T00:33:29;99529.91;;;8.71;81.78
30021;BME280;16861;52.294;7.760;2023-12-20T00:35:56;99539.56;;;8.70;82.02
30021;BME280;16861;52.294;7.760;2023-12-20T00:38:23;99530.00;;;8.69;81.83
30021;BME280;16861;52.294;7.760;2023-12-20T00:40:49;99539.56;;;8.70;81.98
30021;BME280;16861;52.294;7.760;2023-12-20T00:43:16;99543.03;;;8.71;82.11
30021;BME280;16861;52.294;7.760;2023-12-20T00:45:43;99523.03;;;8.68;81.47
30021;BME280;16861;52.294;7.760;2023-12-20T00:48:09;99536.16;;;8.68;81.51
30021;BME280;16861;52.294;7.760;2023-12-20T00:50:36;99527.53;;;8.66;81.06
30021;BME280;16861;52.294;7.760;2023-12-20T00:53:02;99521.53;;;8.64;80.62
30021;BME280;16861;52.294;7.760;2023-12-20T00:55:29;99519.06;;;8.61;80.97
30021;BME280;16861;52.294;7.760;2023-12-20T00:57:56;99521.84;;;8.58;80.84
30021;BME280;16861;52.294;7.760;2023-12-20T01:00:23;99515.06;;;8.54;80.56
30021;BME280;16861;52.294;7.760;2023-12-20T01:02:49;99521.34;;;8.50;80.77
30021;BME280;16861;52.294;7.760;2023-12-20T01:05:18;99517.19;;;8.45;80.62
30021;BME280;16861;52.294;7.760;2023-12-20T01:07:46;99509.50;;;8.42;81.02
30021;BME280;16861;52.294;7.760;2023-12-20T01:10:13;99500.94;;;8.39;80.91
30021;BME280;16861;52.294;7.760;2023-12-20T01:12:40;99501.94;;;8.36;81.19
30021;BME280;16861;52.294;7.760;2023-12-20T01:15:06;99497.63;;;8.35;81.75
30021;BME280;16861;52.294;7.760;2023-12-20T01:17:33;99499.38;;;8.34;81.62
30021;BME280;16861;52.294;7.760;2023-12-20T01:20:00;99508.28;;;8.32;81.37
30021;BME280;16861;52.294;7.760;2023-12-20T01:22:27;99506.59;;;8.31;81.24
30021;BME280;16861;52.294;7.760;2023-12-20T01:24:53;99505.78;;;8.29;80.73
30021;BME280;16861;52.294;7.760;2023-12-20T01:27:20;99501.56;;;8.26;80.45
30021;BME280;16861;52.294;7.760;2023-12-20T01:29:46;99492.09;;;8.24;80.48
30021;BME280;16861;52.294;7.760;2023-12-20T01:32:13;99494.03;;;8.20;80.71
30021;BME280;16861;52.294;7.760;2023-12-20T01:34:40;99495.97;;;8.16;80.28
30021;BME280;16861;52.294;7.760;2023-12-20T01:37:07;99490.09;;;8.11;80.37
30021;BME280;16861;52.294;7.760;2023-12-20T01:39:34;99484.22;;;8.06;80.02
30021;BME280;16861;52.294;7.760;2023-12-20T01:42:00;99499.28;;;8.02;80.00
30021;BME280;16861;52.294;7.760;2023-12-20T01:44:27;99499.50;;;7.98;80.21
30021;BME280;16861;52.294;7.760;2023-12-20T01:46:54;99501.44;;;7.94;80.39
30021;BME280;16861;52.294;7.760;2023-12-20T01:49:21;99495.50;;;7.90;80.64
30021;BME280;16861;52.294;7.760;2023-12-20T01:51:49;99495.72;;;7.86;80.67
30021;BME280;16861;52.294;7.760;2023-12-20T01:54:16;99492.44;;;7.82;80.15
30021;BME280;16861;52.294;7.760;2023-12-20T01:56:43;99494.31;;;7.78;80.19
30021;BME280;16861;52.294;7.760;2023-12-20T01:59:10;99499.81;;;7.74;80.37
30021;BME280;16861;52.294;7.760;2023-12-20T02:01:37;99510.44;;;7.71;80.51
30021;BME280;16861;52.294;7.760;2023-12-20T02:04:03;99504.44;;;7.68;80.98
30021;BME280;16861;52.294;7.760;2023-12-20T02:06:30;99502.78;;;7.66;81.35
30021;BME280;16861;52.294;7.760;2023-12-20T02:09:00;99497.66;;;7.64;81.26
30021;BME280;16861;52.294;7.760;2023-12-20T02:11:27;99500.28;;;7.64;82.07
30021;BME280;16861;52.294;7.760;2023-12-20T02:13:53;99496.78;;;7.64;82.34
30021;BME280;16861;52.294;7.760;2023-12-20T02:16:21;99484.56;;;7.64;82.64
30021;BME280;16861;52.294;7.760;2023-12-20T02:18:48;99487.94;;;7.66;82.75
30021;BME280;16861;52.294;7.760;2023-12-20T02:21:15;99498.28;;;7.69;82.79
30021;BME280;16861;52.294;7.760;2023-12-20T02:23:42;99496.41;;;7.72;83.02
30021;BME280;16861;52.294;7.760;2023-12-20T02:26:08;99495.41;;;7.74;82.58
30021;BME280;16861;52.294;7.760;2023-12-20T02:28:35;99504.06;;;7.76;82.37
30021;BME280;16861;52.294;7.760;2023-12-20T02:31:02;99490.81;;;7.79;82.64
30021;BME280;16861;52.294;7.760;2023-12-20T02:33:29;99491.63;;;7.80;82.50
30021;BME280;16861;52.294;7.760;2023-12-20T02:35:56;99491.56;;;7.81;82.25
30021;BME280;16861;52.294;7.760;2023-12-20T02:38:22;99484.56;;;7.82;82.43
30021;BME280;16861;52.294;7.760;2023-12-20T02:40:49;99484.50;;;7.84;82.43
30021;BME280;16861;52.294;7.760;2023-12-20T02:43:16;99467.84;;;7.85;82.28
30021;BME280;16861;52.294;7.760;2023-12-20T02:45:43;99473.00;;;7.86;81.88
30021;BME280;16861;52.294;7.760;2023-12-20T02:48:09;99477.47;;;7.84;81.75
30021;BME280;16861;52.294;7.760;2023-12-20T02:50:36;99471.38;;;7.84;81.65
30021;BME280;16861;52.294;7.760;2023-12-20T02:53:02;99470.53;;;7.83;81.77
30021;BME280;16861;52.294;7.760;2023-12-20T02:55:29;99467.06;;;7.82;81.55
30021;BME280;16861;52.294;7.760;2023-12-20T02:57:56;99467.13;;;7.81;81.67
30021;BME280;16861;52.294;7.760;2023-12-20T03:00:22;99456.75;;;7.79;81.16
30021;BME280;16861;52.294;7.760;2023-12-20T03:02:49;99457.72;;;7.77;81.54
30021;BME280;16861;52.294;7.760;2023-12-20T03:05:16;99450.78;;;7.76;81.65
30021;BME280;16861;52.294;7.760;2023-12-20T03:07:42;99458.72;;;7.74;81.59
30021;BME280;16861;52.294;7.760;2023-12-20T03:10:10;99462.28;;;7.73;81.52
30021;BME280;16861;52.294;7.760;2023-12-20T03:12:48;99452.81;;;7.71;80.86
30021;BME280;16861;52.294;7.760;2023-12-20T03:15:15;99463.34;;;7.69;80.84
30021;BME280;16861;52.294;7.760;2023-12-20T03:17:42;99468.72;;;7.66;80.89
30021;BME280;16861;52.294;7.760;2023-12-20T03:20:09;99456.63;;;7.63;80.93
30021;BME280;16861;52.294;7.760;2023-12-20T03:22:35;99459.38;;;7.62;80.88
30021;BME280;16861;52.294;7.760;2023-12-20T03:25:02;99455.09;;;7.59;80.98
30021;BME280;16861;52.294;7.760;2023-12-20T03:27:29;99447.41;;;7.56;80.77
30021;BME280;16861;52.294;7.760;2023-12-20T03:29:56;99447.47;;;7.54;80.86
30021;BME280;16861;52.294;7.760;2023-12-20T03:32:22;99452.78;;;7.53;81.02
30021;BME280;16861;52.294;7.760;2023-12-20T03:34:49;99437.22;;;7.50;81.19
30021;BME280;16861;52.294;7.760;2023-12-20T03:37:16;99443.38;;;7.49;81.75
30021;BME280;16861;52.294;7.760;2023-12-20T03:39:42;99432.06;;;7.48;81.63
30021;BME280;16861;52.294;7.760;2023-12-20T03:42:09;99440.78;;;7.49;82.21
30021;BME280;16861;52.294;7.760;2023-12-20T03:44:38;99433.84;;;7.48;81.77
30021;BME280;16861;52.294;7.760;2023-12-20T03:47:06;99430.22;;;7.50;81.83
30021;BME280;16861;52.294;7.760;2023-12-20T03:49:32;99427.53;;;7.52;81.90
30021;BME280;16861;52.294;7.760;2023-12-20T03:51:59;99425.66;;;7.54;82.23
30021;BME280;16861;52.294;7.760;2023-12-20T03:54:26;99425.59;;;7.55;82.14
30021;BME280;16861;52.294;7.760;2023-12-20T03:56:52;99430.75;;;7.57;82.20
30021;BME280;16861;52.294;7.760;2023-12-20T03:59:19;99427.22;;;7.58;82.20
30021;BME280;16861;52.294;7.760;2023-12-20T04:01:45;99426.28;;;7.59;81.92
30021;BME280;16861;52.294;7.760;2023-12-20T04:04:13;99429.75;;;7.60;81.77
30021;BME280;16861;52.294;7.760;2023-12-20T04:06:40;99436.69;;;7.61;82.11
30021;BME280;16861;52.294;7.760;2023-12-20T04:09:06;99431.53;;;7.59;81.77
30021;BME280;16861;52.294;7.760;2023-12-20T04:11:36;99440.25;;;7.60;81.88
30021;BME280;16861;52.294;7.760;2023-12-20T04:14:03;99443.72;;;7.60;81.60
30021;BME280;16861;52.294;7.760;2023-12-20T04:16:31;99424.38;;;7.63;82.06
30021;BME280;16861;52.294;7.760;2023-12-20T04:18:58;99420.91;;;7.62;82.05
30021;BME280;16861;52.294;7.760;2023-12-20T04:21:24;99426.00;;;7.65;82.28
30021;BME280;16861;52.294;7.760;2023-12-20T04:23:51;99433.00;;;7.65;81.80
30021;BME280;16861;52.294;7.760;2023-12-20T04:26:17;99436.41;;;7.67;82.08
30021;BME280;16861;52.294;7.760;2023-12-20T04:28:44;99435.53;;;7.66;81.88
30021;BME280;16861;52.294;7.760;2023-12-20T04:31:10;99432.91;;;7.66;81.84
30021;BME280;16861;52.294;7.760;2023-12-20T04:33:37;99436.41;;;7.67;81.86
30021;BME280;16861;52.294;7.760;2023-12-20T04:36:03;99433.72;;;7.68;81.70
30021;BME280;16861;52.294;7.760;2023-12-20T04:38:31;99427.53;;;7.69;81.73
30021;BME280;16861;52.294;7.760;2023-12-20T04:40:57;99424.06;;;7.69;81.55
30021;BME280;16861;52.294;7.760;2023-12-20T04:43:24;99420.50;;;7.70;82.00
30021;BME280;16861;52.294;7.760;2023-12-20T04:45:51;99415.19;;;7.72;81.69
30021;BME280;16861;52.294;7.760;2023-12-20T04:48:18;99421.28;;;7.72;81.88
30021;BME280;16861;52.294;7.760;2023-12-20T04:50:44;99422.16;;;7.73;81.69
30021;BME280;16861;52.294;7.760;2023-12-20T04:53:11;99419.53;;;7.73;81.83
30021;BME280;16861;52.294;7.760;2023-12-20T04:55:37;99417.75;;;7.73;81.53
30021;BME280;16861;52.294;7.760;2023-12-20T04:58:05;99422.91;;;7.75;81.72
30021;BME280;16861;52.294;7.760;2023-12-20T05:00:32;99425.53;;;7.75;81.72
30021;BME280;16861;52.294;7.760;2023-12-20T05:02:59;99425.53;;;7.75;82.06
30021;BME280;16861;52.294;7.760;2023-12-20T05:05:25;99415.78;;;7.77;81.88
30021;BME280;16861;52.294;7.760;2023-12-20T05:07:52;99418.34;;;7.78;81.82
30021;BME280;16861;52.294;7.760;2023-12-20T05:10:19;99400.84;;;7.79;81.63
30021;BME280;16861;52.294;7.760;2023-12-20T05:12:45;99411.25;;;7.80;81.61
30021;BME280;16861;52.294;7.760;2023-12-20T05:15:12;99416.50;;;7.80;81.81
30021;BME280;16861;52.294;7.760;2023-12-20T05:17:38;99420.75;;;7.83;81.97
30021;BME280;16861;52.294;7.760;2023-12-20T05:20:06;99415.50;;;7.83;81.90
30021;BME280;16861;52.294;7.760;2023-12-20T05:22:33;99413.63;;;7.85;81.75
30021;BME280;16861;52.294;7.760;2023-12-20T05:24:59;99417.97;;;7.86;81.74
30021;BME280;16861;52.294;7.760;2023-12-20T05:27:26;99415.34;;;7.86;81.75
30021;BME280;16861;52.294;7.760;2023-12-20T05:29:52;99394.28;;;7.88;81.97
30021;BME280;16861;52.294;7.760;2023-12-20T05:32:19;99399.53;;;7.88;81.83
30021;BME280;16861;52.294;7.760;2023-12-20T05:34:45;99406.56;;;7.87;81.63
30021;BME280;16861;52.294;7.760;2023-12-20T05:37:12;99411.72;;;7.89;81.63
30021;BME280;16861;52.294;7.760;2023-12-20T05:39:39;99403.94;;;7.87;81.33
30021;BME280;16861;52.294;7.760;2023-12-20T05:42:05;99409.19;;;7.87;81.38
30021;BME280;16861;52.294;7.760;2023-12-20T05:44:32;99414.34;;;7.89;81.39
30021;BME280;16861;52.294;7.760;2023-12-20T05:46:59;99416.88;;;7.90;81.46
30021;BME280;16861;52.294;7.760;2023-12-20T05:49:25;99411.66;;;7.90;81.77
30021;BME280;16861;52.294;7.760;2023-12-20T05:51:52;99408.94;;;7.92;81.51
30021;BME280;16861;52.294;7.760;2023-12-20T05:54:18;99419.41;;;7.92;81.61
30021;BME280;16861;52.294;7.760;2023-12-20T05:56:45;99410.63;;;7.93;81.71
30021;BME280;16861;52.294;7.760;2023-12-20T05:59:11;99410.63;;;7.93;81.51
30021;BME280;16861;52.294;7.760;2023-12-20T06:01:38;99415.88;;;7.93;81.70
30021;BME280;16861;52.294;7.760;2023-12-20T06:04:04;99410.63;;;7.93;81.37
30021;BME280;16861;52.294;7.760;2023-12-20T06:06:31;99404.47;;;7.94;81.64
30021;BME280;16861;52.294;7.760;2023-12-20T06:08:58;99411.47;;;7.93;81.63
30021;BME280;16861;52.294;7.760;2023-12-20T06:11:25;99414.88;;;7.95;81.21
30021;BME280;16861;52.294;7.760;2023-12-20T06:13:52;99398.22;;;7.97;81.50
30021;BME280;16861;52.294;7.760;2023-12-20T06:16:19;99407.75;;;7.98;81.52
30021;BME280;16861;52.294;7.760;2023-12-20T06:18:46;99411.31;;;7.97;81.66
30021;BME280;16861;52.294;7.760;2023-12-20T06:21:13;99415.63;;;7.98;81.28
30021;BME280;16861;52.294;7.760;2023-12-20T06:23:40;99416.50;;;7.98;81.34
30021;BME280;16861;52.294;7.760;2023-12-20T06:26:07;99418.16;;;7.99;81.27
30021;BME280;16861;52.294;7.760;2023-12-20T06:28:34;99420.72;;;8.01;81.62
30021;BME280;16861;52.294;7.760;2023-12-20T06:31:00;99412.00;;;8.00;81.38
30021;BME280;16861;52.294;7.760;2023-12-20T06:33:27;99413.72;;;8.01;81.42
30021;BME280;16861;52.294;7.760;2023-12-20T06:35:54;99406.59;;;8.03;81.21
30021;BME280;16861;52.294;7.760;2023-12-20T06:38:20;99414.47;;;8.03;81.25
30021;BME280;16861;52.294;7.760;2023-12-20T06:40:47;99410.09;;;8.04;81.11
30021;BME280;16861;52.294;7.760;2023-12-20T06:43:14;99399.59;;;8.04;81.16
30021;BME280;16861;52.294;7.760;2023-12-20T06:46:00;99395.19;;;8.04;80.71
30021;BME280;16861;52.294;7.760;2023-12-20T06:48:27;99401.34;;;8.03;80.73
30021;BME280;16861;52.294;7.760;2023-12-20T06:50:54;99396.97;;;8.04;80.98
30021;BME280;16861;52.294;7.760;2023-12-20T06:53:20;99389.13;;;8.04;80.98
30021;BME280;16861;52.294;7.760;2023-12-20T06:55:47;99382.94;;;8.05;81.14
30021;BME280;16861;52.294;7.760;2023-12-20T06:58:13;99387.25;;;8.06;80.85
30021;BME280;16861;52.294;7.760;2023-12-20T07:00:40;99382.00;;;8.06;80.83
30021;BME280;16861;52.294;7.760;2023-12-20T07:03:07;99381.06;;;8.07;81.02
30021;BME280;16861;52.294;7.760;2023-12-20T07:05:33;99384.53;;;8.07;80.76
30021;BME280;16861;52.294;7.760;2023-12-20T07:08:00;99385.34;;;8.10;81.14
30021;BME280;16861;52.294;7.760;2023-12-20T07:10:27;99386.16;;;8.10;81.03
30021;BME280;16861;52.294;7.760;2023-12-20T07:12:53;99380.91;;;8.10;80.85
30021;BME280;16861;52.294;7.760;2023-12-20T07:15:22;99379.06;;;8.12;81.01
30021;BME280;16861;52.294;7.760;2023-12-20T07:17:48;99388.78;;;8.10;80.67
30021;BME280;16861;52.294;7.760;2023-12-20T07:20:15;99360.81;;;8.11;80.50
30021;BME280;16861;52.294;7.760;2023-12-20T07:22:42;99377.47;;;8.10;80.56
30021;BME280;16861;52.294;7.760;2023-12-20T07:25:09;99381.84;;;8.09;80.71
30021;BME280;16861;52.294;7.760;2023-12-20T07:27:37;99367.06;;;8.08;80.51
30021;BME280;16861;52.294;7.760;2023-12-20T07:30:03;99381.84;;;8.09;79.87
30021;BME280;16861;52.294;7.760;2023-12-20T07:32:30;99371.44;;;8.07;80.46
30021;BME280;16861;52.294;7.760;2023-12-20T07:34:58;99377.47;;;8.10;80.83
30021;BME280;16861;52.294;7.760;2023-12-20T07:37:26;99381.84;;;8.09;80.45
30021;BME280;16861;52.294;7.760;2023-12-20T07:39:52;99374.72;;;8.11;80.72
30021;BME280;16861;52.294;7.760;2023-12-20T07:42:19;99377.28;;;8.13;80.50
30021;BME280;16861;52.294;7.760;2023-12-20T07:44:46;99382.53;;;8.13;80.60
30021;BME280;16861;52.294;7.760;2023-12-20T07:47:13;99386.84;;;8.14;80.12
30021;BME280;16861;52.294;7.760;2023-12-20T07:49:44;99375.44;;;8.15;80.69
30021;BME280;16861;52.294;7.760;2023-12-20T07:52:11;99390.22;;;8.16;80.39
30021;BME280;16861;52.294;7.760;2023-12-20T07:54:37;99386.84;;;8.14;80.06
30021;BME280;16861;52.294;7.760;2023-12-20T07:57:04;99380.75;;;8.13;80.23
30021;BME280;16861;52.294;7.760;2023-12-20T07:59:30;99377.19;;;8.14;80.07
30021;BME280;16861;52.294;7.760;2023-12-20T08:01:58;99377.13;;;8.16;80.42
30021;BME280;16861;52.294;7.760;2023-12-20T08:04:26;99373.50;;;8.18;80.25
30021;BME280;16861;52.294;7.760;2023-12-20T08:06:53;99369.19;;;8.17;80.27
30021;BME280;16861;52.294;7.760;2023-12-20T08:09:19;99363.88;;;8.19;80.05
30021;BME280;16861;52.294;7.760;2023-12-20T08:11:47;99374.34;;;8.19;80.16
30021;BME280;16861;52.294;7.760;2023-12-20T08:14:14;99368.09;;;8.21;80.44
30021;BME280;16861;52.294;7.760;2023-12-20T08:16:41;99373.34;;;8.21;80.00
30021;BME280;16861;52.294;7.760;2023-12-20T08:19:07;99362.66;;;8.25;80.36
30021;BME280;16861;52.294;7.760;2023-12-20T08:21:34;99365.28;;;8.25;80.03
30021;BME280;16861;52.294;7.760;2023-12-20T08:24:04;99358.28;;;8.25;79.87
30021;BME280;16861;52.294;7.760;2023-12-20T08:26:32;99373.16;;;8.25;79.59
30021;BME280;16861;52.294;7.760;2023-12-20T08:28:59;99373.94;;;8.27;80.14
30021;BME280;16861;52.294;7.760;2023-12-20T08:31:27;99365.91;;;8.30;80.04
30021;BME280;16861;52.294;7.760;2023-12-20T08:33:54;99365.91;;;8.30;80.15
30021;BME280;16861;52.294;7.760;2023-12-20T08:36:21;99380.72;;;8.31;80.36
30021;BME280;16861;52.294;7.760;2023-12-20T08:38:49;99371.75;;;8.35;80.57
30021;BME280;16861;52.294;7.760;2023-12-20T08:41:17;99356.00;;;8.35;80.51
30021;BME280;16861;52.294;7.760;2023-12-20T08:43:44;99363.78;;;8.37;80.40
30021;BME280;16861;52.294;7.760;2023-12-20T08:46:10;99354.91;;;8.39;80.23
30021;BME280;16861;52.294;7.760;2023-12-20T08:48:38;99371.47;;;8.40;80.19
30021;BME280;16861;52.294;7.760;2023-12-20T08:51:05;99350.41;;;8.41;79.91
30021;BME280;16861;52.294;7.760;2023-12-20T08:53:34;99341.63;;;8.42;79.93
30021;BME280;16861;52.294;7.760;2023-12-20T08:56:01;99353.75;;;8.45;79.99
30021;BME280;16861;52.294;7.760;2023-12-20T08:58:28;99347.78;;;8.41;79.76
30021;BME280;16861;52.294;7.760;2023-12-20T09:00:55;99345.09;;;8.43;80.22
30021;BME280;16861;52.294;7.760;2023-12-20T09:03:22;99346.78;;;8.44;79.99
30021;BME280;16861;52.294;7.760;2023-12-20T09:05:48;99343.31;;;8.43;80.21
30021;BME280;16861;52.294;7.760;2023-12-20T09:08:15;99348.50;;;8.45;79.83
30021;BME280;16861;52.294;7.760;2023-12-20T09:10:42;99338.00;;;8.45;80.31
30021;BME280;16861;52.294;7.760;2023-12-20T09:13:09;99335.47;;;8.43;80.20
30021;BME280;16861;52.294;7.760;2023-12-20T09:15:36;99341.44;;;8.45;80.50
30021;BME280;16861;52.294;7.760;2023-12-20T09:18:02;99337.88;;;8.46;80.22
30021;BME280;16861;52.294;7.760;2023-12-20T09:20:30;99329.13;;;8.47;80.48
30021;BME280;16861;52.294;7.760;2023-12-20T09:22:57;99333.41;;;8.48;80.54
30021;BME280;16861;52.294;7.760;2023-12-20T09:25:24;99331.53;;;8.51;80.34
30021;BME280;16861;52.294;7.760;2023-12-20T09:27:52;99334.16;;;8.51;80.19
30021;BME280;16861;52.294;7.760;2023-12-20T09:30:19;99326.28;;;8.51;80.09
30021;BME280;16861;52.294;7.760;2023-12-20T09:32:53;99326.28;;;8.51;80.29
30021;BME280;16861;52.294;7.760;2023-12-20T09:35:21;99312.44;;;8.48;80.13
30021;BME280;16861;52.294;7.760;2023-12-20T09:37:48;99329.19;;;8.46;80.07
30021;BME280;16861;52.294;7.760;2023-12-20T09:40:18;99319.81;;;8.42;78.83
30021;BME280;16861;52.294;7.760;2023-12-20T09:42:56;99326.81;;;8.41;79.61
30021;BME280;16861;52.294;7.760;2023-12-20T09:45:24;99338.09;;;8.43;80.60
30021;BME280;16861;52.294;7.760;2023-12-20T09:47:52;99344.25;;;8.42;80.45
30021;BME280;16861;52.294;7.760;2023-12-20T09:50:20;99343.31;;;8.43;80.87
30021;BME280;16861;52.294;7.760;2023-12-20T09:52:52;99340.78;;;8.42;80.46
30021;BME280;16861;52.294;7.760;2023-12-20T09:55:19;99343.31;;;8.43;80.82
30021;BME280;16861;52.294;7.760;2023-12-20T09:57:49;99357.47;;;8.41;80.51
30021;BME280;16861;52.294;7.760;2023-12-20T10:00:17;99345.94;;;8.43;81.04
30021;BME280;16861;52.294;7.760;2023-12-20T10:02:57;99349.66;;;8.39;80.43
30021;BME280;16861;52.294;7.760;2023-12-20T10:05:28;99352.28;;;8.39;80.72
30021;BME280;16861;52.294;7.760;2023-12-20T10:07:56;99348.56;;;8.43;81.33
30021;BME280;16861;52.294;7.760;2023-12-20T10:10:23;99347.72;;;8.43;81.41
30021;BME280;16861;52.294;7.760;2023-12-20T10:13:08;99353.03;;;8.41;80.74
30021;BME280;16861;52.294;7.760;2023-12-20T10:15:36;99341.44;;;8.45;81.53
30021;BME280;16861;52.294;7.760;2023-12-20T10:18:04;99349.25;;;8.47;81.77
30021;BME280;16861;52.294;7.760;2023-12-20T10:20:31;99336.03;;;8.48;81.51
30021;BME280;16861;52.294;7.760;2023-12-20T10:22:59;99345.53;;;8.51;81.84
30021;BME280;16861;52.294;7.760;2023-12-20T10:25:26;99342.84;;;8.53;81.58
30021;BME280;16861;52.294;7.760;2023-12-20T10:28:12;99344.66;;;8.51;80.98
30021;BME280;16861;52.294;7.760;2023-12-20T10:30:40;99350.56;;;8.56;81.66
30021;BME280;16861;52.294;7.760;2023-12-20T10:33:09;99341.75;;;8.57;81.67
30021;BME280;16861;52.294;7.760;2023-12-20T10:35:38;99343.50;;;8.56;81.22
30021;BME280;16861;52.294;7.760;2023-12-20T10:38:10;99337.25;;;8.59;81.40
30021;BME280;16861;52.294;7.760;2023-12-20T10:40:37;99332.78;;;8.61;81.35
30021;BME280;16861;52.294;7.760;2023-12-20T10:43:05;99321.34;;;8.62;81.44
30021;BME280;16861;52.294;7.760;2023-12-20T10:45:32;99310.75;;;8.64;81.30
30021;BME280;16861;52.294;7.760;2023-12-20T10:48:01;99301.13;;;8.64;81.47
30021;BME280;16861;52.294;7.760;2023-12-20T10:50:29;99320.25;;;8.66;81.64
30021;BME280;16861;52.294;7.760;2023-12-20T10:52:57;99303.56;;;8.67;81.70
30021;BME280;16861;52.294;7.760;2023-12-20T10:55:25;99295.53;;;8.70;82.16
30021;BME280;16861;52.294;7.760;2023-12-20T10:57:54;99305.84;;;8.73;81.85
30021;BME280;16861;52.294;7.760;2023-12-20T11:00:26;99296.88;;;8.78;81.98
30021;BME280;16861;52.294;7.760;2023-12-20T11:02:56;99297.53;;;8.81;81.98
30021;BME280;16861;52.294;7.760;2023-12-20T11:05:33;99304.31;;;8.85;81.35
30021;BME280;16861;52.294;7.760;2023-12-20T11:08:09;99308.53;;;8.88;80.61
30021;BME280;16861;52.294;7.760;2023-12-20T11:13:19;99298.59;;;8.93;80.53
30021;BME280;16861;52.294;7.760;2023-12-20T11:15:47;99287.00;;;8.97;80.63
30021;BME280;16861;52.294;7.760;2023-12-20T11:18:14;99292.16;;;8.99;80.76
30021;BME280;16861;52.294;7.760;2023-12-20T11:20:42;99282.50;;;8.99;80.80
30021;BME280;16861;52.294;7.760;2023-12-20T11:23:09;99292.06;;;9.01;80.69
30021;BME280;16861;52.294;7.760;2023-12-20T11:25:56;99290.56;;;8.96;79.05
30021;BME280;16861;52.294;7.760;2023-12-20T11:28:26;99304.44;;;8.98;79.89
30021;BME280;16861;52.294;7.760;2023-12-20T11:31:00;99308.84;;;8.98;80.01
30021;BME280;16861;52.294;7.760;2023-12-20T11:33:36;99287.00;;;8.97;79.74
30021;BME280;16861;52.294;7.760;2023-12-20T11:36:03;99286.06;;;8.98;80.74
30021;BME280;16861;52.294;7.760;2023-12-20T11:38:53;99298.59;;;8.93;79.72
30021;BME280;16861;52.294;7.760;2023-12-20T11:41:22;99283.63;;;8.95;80.85
30021;BME280;16861;52.294;7.760;2023-12-20T11:43:53;99294.28;;;8.92;80.13
30021;BME280;16861;52.294;7.760;2023-12-20T11:46:20;99287.16;;;8.94;80.53
30021;BME280;16861;52.294;7.760;2023-12-20T11:48:47;99289.91;;;8.93;80.79
30021;BME280;16861;52.294;7.760;2023-12-20T11:51:15;99297.84;;;8.91;81.09
30021;BME280;16861;52.294;7.760;2023-12-20T11:53:41;99305.81;;;8.90;81.08
30021;BME280;16861;52.294;7.760;2023-12-20T11:56:11;99308.53;;;8.88;80.96
30021;BME280;16861;52.294;7.760;2023-12-20T11:58:38;99308.53;;;8.88;80.97
30021;BME280;16861;52.294;7.760;2023-12-20T12:01:05;99307.78;;;8.86;80.90
30021;BME280;16861;52.294;7.760;2023-12-20T12:03:35;99296.50;;;8.84;80.64
30021;BME280;16861;52.294;7.760;2023-12-20T12:06:02;99305.41;;;8.81;80.17
30021;BME280;16861;52.294;7.760;2023-12-20T12:08:31;99303.81;;;8.79;80.19
30021;BME280;16861;52.294;7.760;2023-12-20T12:10:58;99305.66;;;8.77;80.39
30021;BME280;16861;52.294;7.760;2023-12-20T12:13:25;99304.06;;;8.74;80.53
30021;BME280;16861;52.294;7.760;2023-12-20T12:15:54;99289.34;;;8.71;80.45
30021;BME280;16861;52.294;7.760;2023-12-20T12:18:20;99285.03;;;8.70;80.04
30021;BME280;16861;52.294;7.760;2023-12-20T12:20:48;99290.44;;;8.67;80.17
30021;BME280;16861;52.294;7.760;2023-12-20T12:23:22;99288.91;;;8.63;79.52
30021;BME280;16861;52.294;7.760;2023-12-20T12:25:49;99273.09;;;8.65;80.21
30021;BME280;16861;52.294;7.760;2023-12-20T12:28:16;99271.50;;;8.62;80.47
30021;BME280;16861;52.294;7.760;2023-12-20T12:30:43;99282.94;;;8.61;80.28
30021;BME280;16861;52.294;7.760;2023-12-20T12:33:19;99279.44;;;8.60;80.46
30021;BME280;16861;52.294;7.760;2023-12-20T12:35:46;99282.16;;;8.59;80.40
30021;BME280;16861;52.294;7.760;2023-12-20T12:38:14;99280.47;;;8.58;80.38
30021;BME280;16861;52.294;7.760;2023-12-20T12:40:43;99280.63;;;8.55;79.92
30021;BME280;16861;52.294;7.760;2023-12-20T12:43:10;99288.50;;;8.55;80.62
30021;BME280;16861;52.294;7.760;2023-12-20T12:45:36;99284.13;;;8.55;80.89
30021;BME280;16861;52.294;7.760;2023-12-20T12:48:14;99281.50;;;8.55;80.84
30021;BME280;16861;52.294;7.760;2023-12-20T12:50:40;99276.16;;;8.57;80.85
30021;BME280;16861;52.294;7.760;2023-12-20T12:53:07;99273.53;;;8.57;80.54
30021;BME280;16861;52.294;7.760;2023-12-20T12:55:34;99272.75;;;8.55;80.08
30021;BME280;16861;52.294;7.760;2023-12-20T12:58:02;99267.50;;;8.55;80.56
30021;BME280;16861;52.294;7.760;2023-12-20T13:00:28;99269.22;;;8.56;80.65
30021;BME280;16861;52.294;7.760;2023-12-20T13:02:55;99270.06;;;8.56;80.65
30021;BME280;16861;52.294;7.760;2023-12-20T13:05:21;99263.97;;;8.56;80.77
30021;BME280;16861;52.294;7.760;2023-12-20T13:07:48;99263.03;;;8.57;80.67
30021;BME280;16861;52.294;7.760;2023-12-20T13:10:15;99263.88;;;8.57;80.61
30021;BME280;16861;52.294;7.760;2023-12-20T13:12:43;99256.84;;;8.58;80.61
30021;BME280;16861;52.294;7.760;2023-12-20T13:15:10;99255.91;;;8.59;80.44